TimeCST,TemperatureF,Dew PointF,Humidity,Sea Level PressureIn,VisibilityMPH,Wind Direction,Wind SpeedMPH,Gust SpeedMPH,PrecipitationIn,Events,Conditions,WindDirDegrees,DateUTC
12:53 AM,55.9,37.9,51,30.27,10.0,ENE,6.9,-,N/A,,Overcast,60,2012-11-18 06:53:00
1:53 AM,55.0,37.0,51,30.26,10.0,NE,5.8,-,N/A,,Overcast,50,2012-11-18 07:53:00
2:53 AM,54.0,37.9,55,30.25,10.0,NE,5.8,-,N/A,,Scattered Clouds,50,2012-11-18 08:53:00
3:53 AM,53.1,37.9,57,30.26,10.0,NE,5.8,-,N/A,,Mostly Cloudy,50,2012-11-18 09:53:00
4:53 AM,52.0,37.0,57,30.27,10.0,NNE,8.1,-,N/A,,Mostly Cloudy,30,2012-11-18 10:53:00
5:53 AM,51.1,37.9,61,30.28,10.0,NE,5.8,-,N/A,,Overcast,40,2012-11-18 11:53:00
6:53 AM,51.1,37.9,61,30.29,10.0,NNE,9.2,-,N/A,,Partly Cloudy,30,2012-11-18 12:53:00
7:53 AM,53.1,39.9,61,30.30,10.0,NE,5.8,-,N/A,,Overcast,40,2012-11-18 13:53:00
8:53 AM,55.9,42.1,60,30.30,10.0,NE,8.1,-,N/A,,Partly Cloudy,50,2012-11-18 14:53:00
9:53 AM,59.0,43.0,55,30.29,10.0,NE,9.2,-,N/A,,Clear,50,2012-11-18 15:53:00
10:53 AM,62.1,44.1,52,30.29,10.0,East,5.8,-,N/A,,Clear,80,2012-11-18 16:53:00
11:53 AM,66.0,44.1,45,30.27,10.0,North,3.5,-,N/A,,Clear,10,2012-11-18 17:53:00
12:53 PM,68.0,45.0,43,30.23,10.0,NE,4.6,-,N/A,,Partly Cloudy,50,2012-11-18 18:53:00
1:53 PM,70.0,45.0,41,30.22,10.0,ENE,4.6,-,N/A,,Clear,70,2012-11-18 19:53:00
2:53 PM,70.0,45.0,41,30.22,10.0,Variable,3.5,-,N/A,,Clear,0,2012-11-18 20:53:00
3:53 PM,69.1,46.0,44,30.22,10.0,NNE,3.5,-,N/A,,Clear,20,2012-11-18 21:53:00
4:53 PM,64.0,48.9,58,30.23,10.0,Calm,Calm,-,N/A,,Clear,0,2012-11-18 22:53:00
5:53 PM,62.1,46.9,58,30.25,10.0,North,4.6,-,N/A,,Clear,10,2012-11-18 23:53:00
6:53 PM,60.1,50.0,69,30.25,10.0,NNW,4.6,-,N/A,,Clear,340,2012-11-19 00:53:00
7:53 PM,59.0,48.9,69,30.26,10.0,NNW,4.6,-,N/A,,Clear,340,2012-11-19 01:53:00
8:53 PM,57.9,48.0,70,30.26,10.0,North,5.8,-,N/A,,Clear,350,2012-11-19 02:53:00
9:53 PM,57.9,46.9,67,30.27,10.0,North,5.8,-,N/A,,Clear,10,2012-11-19 03:53:00
10:53 PM,57.9,46.9,67,30.26,10.0,North,5.8,-,N/A,,Clear,10,2012-11-19 04:53:00
11:53 PM,57.0,45.0,64,30.26,10.0,North,9.2,-,N/A,,Clear,10,2012-11-19 05:53:00